createdAt,value
2023-04-17T00:00:38.123Z,7.57
2023-04-17T00:03:04.811Z,7.54
2023-04-17T00:05:31.942Z,7.53
2023-04-17T00:07:59.996Z,7.51
2023-04-17T00:10:26.646Z,7.67
2023-04-17T00:12:53.225Z,7.74
2023-04-17T00:15:19.711Z,7.68
2023-04-17T00:17:46.228Z,7.68
2023-04-17T00:20:13.383Z,7.56
2023-04-17T00:22:39.878Z,7.70
2023-04-17T00:25:06.983Z,7.65
2023-04-17T00:27:33.620Z,7.40
2023-04-17T00:30:00.242Z,7.37
2023-04-17T00:32:26.775Z,7.43
2023-04-17T00:34:55.593Z,7.45
2023-04-17T00:37:22.475Z,7.56
2023-04-17T00:39:48.960Z,7.57
2023-04-17T00:42:15.432Z,7.60
2023-04-17T00:44:41.910Z,7.52
2023-04-17T00:47:08.614Z,7.68
2023-04-17T00:49:35.373Z,7.60
2023-04-17T00:52:02.668Z,7.60
2023-04-17T00:54:29.436Z,7.47
2023-04-17T00:56:56.693Z,7.48
2023-04-17T00:59:24.033Z,7.40
2023-04-17T01:01:50.651Z,7.35
2023-04-17T01:04:17.216Z,7.51
2023-04-17T01:06:43.742Z,7.40
2023-04-17T01:09:11.452Z,7.44
2023-04-17T01:11:39.231Z,7.37
2023-04-17T01:14:05.816Z,7.56
2023-04-17T01:16:32.349Z,7.58
2023-04-17T01:18:59.522Z,7.53
2023-04-17T01:21:26.153Z,7.64
2023-04-17T01:23:53.335Z,7.69
2023-04-17T01:26:23.607Z,7.44
2023-04-17T01:28:59.779Z,7.37
2023-04-17T01:31:27.832Z,7.26
2023-04-17T01:33:54.431Z,7.32
2023-04-17T01:36:20.870Z,7.41
2023-04-17T01:38:47.435Z,7.39
2023-04-17T01:41:13.968Z,7.42
2023-04-17T01:43:42.871Z,7.42
2023-04-17T01:46:10.108Z,7.43
2023-04-17T01:48:36.968Z,7.44
2023-04-17T01:51:04.137Z,7.38
2023-04-17T01:53:31.356Z,7.43
2023-04-17T01:55:58.102Z,7.31
2023-04-17T01:58:24.617Z,7.37
2023-04-17T02:00:51.979Z,7.39
2023-04-17T02:03:19.319Z,7.34
2023-04-17T02:05:48.417Z,7.25
2023-04-17T02:08:15.132Z,7.25
2023-04-17T02:10:42.287Z,7.28
2023-04-17T02:13:10.087Z,7.20
2023-04-17T02:15:39.952Z,7.26
2023-04-17T02:18:06.831Z,7.29
2023-04-17T02:20:34.050Z,7.23
2023-04-17T02:23:01.263Z,7.28
2023-04-17T02:25:28.333Z,7.24
2023-04-17T02:27:56.223Z,7.35
2023-04-17T02:30:26.688Z,7.40
2023-04-17T02:32:54.076Z,7.37
2023-04-17T02:35:22.476Z,7.48
2023-04-17T02:37:49.054Z,7.43
2023-04-17T02:40:16.245Z,7.43
2023-04-17T02:42:42.747Z,7.28
2023-04-17T02:45:11.118Z,7.27
2023-04-17T02:47:38.079Z,7.22
2023-04-17T02:50:05.706Z,7.28
2023-04-17T02:52:33.980Z,7.31
2023-04-17T02:55:00.577Z,7.14
2023-04-17T02:57:27.091Z,7.12
2023-04-17T02:59:53.736Z,7.14
2023-04-17T03:02:23.363Z,7.06
2023-04-17T03:04:50.627Z,6.99
2023-04-17T03:07:20.682Z,6.98
2023-04-17T03:09:47.631Z,7.01
2023-04-17T03:12:14.792Z,7.05
2023-04-17T03:14:41.929Z,7.16
2023-04-17T03:17:10.102Z,7.29
2023-04-17T03:19:36.584Z,7.12
2023-04-17T03:22:03.328Z,7.21
2023-04-17T03:24:30.064Z,7.29
2023-04-17T03:26:56.579Z,7.32
2023-04-17T03:29:23.459Z,7.23
2023-04-17T03:31:50.014Z,7.30
2023-04-17T03:34:17.751Z,7.39
2023-04-17T03:36:44.504Z,7.38
2023-04-17T03:39:11.564Z,7.36
2023-04-17T03:41:38.731Z,7.37
2023-04-17T03:44:05.683Z,7.42
2023-04-17T03:46:32.266Z,7.39
2023-04-17T03:48:58.769Z,7.50
2023-04-17T03:51:27.294Z,7.43
2023-04-17T03:53:53.799Z,7.40
2023-04-17T03:56:20.552Z,7.44
2023-04-17T03:58:47.113Z,7.38
2023-04-17T04:01:14.695Z,7.30
2023-04-17T04:03:41.494Z,7.41
2023-04-17T04:06:08.271Z,7.46
2023-04-17T04:08:34.762Z,7.50
2023-04-17T04:11:02.179Z,7.55
2023-04-17T04:13:28.728Z,7.49
2023-04-17T04:15:55.234Z,7.51
2023-04-17T04:18:21.749Z,7.63
2023-04-17T04:20:48.367Z,7.58
2023-04-17T04:23:16.661Z,7.67
2023-04-17T04:25:43.530Z,7.52
2023-04-17T04:28:11.188Z,7.51
2023-04-17T04:30:38.728Z,7.60
2023-04-17T04:33:06.184Z,7.65
2023-04-17T04:35:32.831Z,7.54
2023-04-17T04:38:02.946Z,7.74
2023-04-17T04:40:30.798Z,7.65
2023-04-17T04:42:57.323Z,7.64
2023-04-17T04:45:23.987Z,7.64
2023-04-17T04:47:50.707Z,7.72
2023-04-17T04:50:17.656Z,7.61
2023-04-17T04:52:44.253Z,7.53
2023-04-17T04:55:12.699Z,7.69
2023-04-17T04:57:39.713Z,7.69
2023-04-17T05:00:08.044Z,7.73
2023-04-17T05:02:34.810Z,7.78
2023-04-17T05:05:01.800Z,7.69
2023-04-17T05:07:28.632Z,7.63
2023-04-17T05:09:55.559Z,7.71
2023-04-17T05:12:22.125Z,7.68
2023-04-17T05:14:49.217Z,7.74
2023-04-17T05:17:15.864Z,7.64
2023-04-17T05:19:42.525Z,7.68
2023-04-17T05:22:10.293Z,7.76
2023-04-17T05:24:36.872Z,7.71
2023-04-17T05:27:04.234Z,7.82
2023-04-17T05:29:32.718Z,7.88
2023-04-17T05:31:59.298Z,7.89
2023-04-17T05:34:26.322Z,7.87
2023-04-17T05:36:52.942Z,8.01
2023-04-17T05:39:19.516Z,7.92
2023-04-17T05:41:46.145Z,7.91
2023-04-17T05:44:12.838Z,7.97
2023-04-17T05:46:39.307Z,7.84
2023-04-17T05:49:05.774Z,7.86
2023-04-17T05:51:32.300Z,8.00
2023-04-17T05:53:58.907Z,7.86
2023-04-17T05:56:25.665Z,7.95
2023-04-17T05:58:52.154Z,8.07
2023-04-17T06:01:22.380Z,8.11
2023-04-17T06:03:49.258Z,8.41
2023-04-17T06:06:16.658Z,8.56
2023-04-17T06:08:43.139Z,8.75
2023-04-17T06:11:10.349Z,8.71
2023-04-17T06:13:37.007Z,8.63
2023-04-17T06:16:03.601Z,8.67
2023-04-17T06:18:30.239Z,8.63
2023-04-17T06:20:56.857Z,8.56
2023-04-17T06:23:23.351Z,8.63
2023-04-17T06:25:50.303Z,8.80
2023-04-17T06:28:17.112Z,9.12
2023-04-17T06:30:43.664Z,9.06
2023-04-17T06:33:11.260Z,9.06
2023-04-17T06:35:38.012Z,8.92
2023-04-17T06:38:04.577Z,8.86
2023-04-17T06:40:31.354Z,9.11
2023-04-17T06:42:57.958Z,9.43
2023-04-17T06:45:24.762Z,9.44
2023-04-17T06:47:51.398Z,9.49
2023-04-17T06:50:18.277Z,9.57
2023-04-17T06:52:44.965Z,9.42
2023-04-17T06:55:11.717Z,9.32
2023-04-17T06:57:39.260Z,9.50
2023-04-17T07:00:07.796Z,10.08
2023-04-17T07:02:34.581Z,10.55
2023-04-17T07:05:01.511Z,10.56
2023-04-17T07:07:30.636Z,10.45
2023-04-17T07:09:57.608Z,10.25
2023-04-17T07:12:24.114Z,10.67
2023-04-17T07:14:51.164Z,10.65
2023-04-17T07:17:18.163Z,10.77
2023-04-17T07:19:44.794Z,10.66
2023-04-17T07:22:11.952Z,10.63
2023-04-17T07:24:38.614Z,10.61
2023-04-17T07:27:06.649Z,10.98
2023-04-17T07:29:33.362Z,10.93
2023-04-17T07:31:59.922Z,11.07
2023-04-17T07:34:27.415Z,11.00
2023-04-17T07:36:54.011Z,11.02
2023-04-17T07:39:21.053Z,10.81
2023-04-17T07:41:48.617Z,11.23
2023-04-17T07:44:15.347Z,11.63
2023-04-17T07:46:42.142Z,11.89
2023-04-17T07:49:10.752Z,11.63
2023-04-17T07:51:41.115Z,10.86
2023-04-17T07:54:07.800Z,10.71
2023-04-17T07:56:34.688Z,10.80
2023-04-17T07:59:01.325Z,10.90
2023-04-17T08:01:28.118Z,10.97
2023-04-17T08:03:55.734Z,11.32
2023-04-17T08:06:22.572Z,11.85
2023-04-17T08:08:49.279Z,11.51
2023-04-17T08:11:15.909Z,11.36
2023-04-17T08:13:42.613Z,11.38
2023-04-17T08:16:11.076Z,11.19
2023-04-17T08:18:40.023Z,11.38
2023-04-17T08:21:11.332Z,10.97
2023-04-17T08:23:37.996Z,10.89
2023-04-17T08:26:04.973Z,10.94
2023-04-17T08:28:31.818Z,10.94
2023-04-17T08:30:58.635Z,10.92
2023-04-17T08:33:25.373Z,11.05
2023-04-17T08:35:52.100Z,11.14
2023-04-17T08:38:18.753Z,11.14
2023-04-17T08:40:51.958Z,11.30
2023-04-17T08:43:21.125Z,11.72
2023-04-17T08:45:53.900Z,11.79
2023-04-17T08:48:22.039Z,11.66
2023-04-17T08:50:50.204Z,11.64
2023-04-17T08:53:17.657Z,11.55
2023-04-17T08:55:45.450Z,11.62
2023-04-17T08:58:12.855Z,11.66
2023-04-17T09:00:41.080Z,11.53
2023-04-17T09:03:11.479Z,11.55
2023-04-17T09:05:42.107Z,11.59
2023-04-17T09:08:16.578Z,11.71
2023-04-17T09:10:48.774Z,11.97
2023-04-17T09:13:18.115Z,11.95
2023-04-17T09:15:46.233Z,12.10
2023-04-17T09:18:31.192Z,12.42
2023-04-17T09:21:00.008Z,12.69
2023-04-17T09:23:27.795Z,12.58
2023-04-17T09:26:14.347Z,12.54
2023-04-17T09:28:41.671Z,12.05
2023-04-17T09:31:20.098Z,11.97
2023-04-17T09:34:07.450Z,11.85
2023-04-17T09:36:36.839Z,11.64
2023-04-17T09:39:05.352Z,11.51
2023-04-17T09:41:39.476Z,11.61
2023-04-17T09:44:06.227Z,11.82
2023-04-17T09:46:40.681Z,12.01
2023-04-17T09:49:30.329Z,12.13
2023-04-17T09:51:57.849Z,12.23
2023-04-17T09:54:25.187Z,12.24
2023-04-17T09:56:55.958Z,12.07
2023-04-17T09:59:24.905Z,12.23
2023-04-17T10:01:54.323Z,12.66
2023-04-17T10:04:21.895Z,12.99
2023-04-17T10:06:49.820Z,13.25
2023-04-17T10:09:16.584Z,13.40
2023-04-17T10:11:45.085Z,13.35
2023-04-17T10:14:16.097Z,13.42
2023-04-17T10:16:43.754Z,13.34
2023-04-17T10:19:31.046Z,12.96
2023-04-17T10:22:15.710Z,12.95
2023-04-17T10:24:43.258Z,12.86
2023-04-17T10:27:32.814Z,12.42
2023-04-17T10:30:01.727Z,12.49
2023-04-17T10:32:29.255Z,12.68
2023-04-17T10:35:04.955Z,12.96
2023-04-17T10:38:04.791Z,12.89
2023-04-17T10:40:33.719Z,13.14
2023-04-17T10:43:04.766Z,13.27
2023-04-17T10:46:06.179Z,13.52
2023-04-17T10:48:42.904Z,13.52
2023-04-17T10:51:21.665Z,13.38
2023-04-17T10:53:49.943Z,13.67
2023-04-17T10:56:23.920Z,13.71
2023-04-17T10:58:57.765Z,13.71
2023-04-17T11:01:46.012Z,13.76
2023-04-17T11:04:19.615Z,13.83
2023-04-17T11:06:47.611Z,14.02
2023-04-17T11:09:15.211Z,14.71
2023-04-17T11:11:45.024Z,14.45
2023-04-17T11:14:21.249Z,14.54
2023-04-17T11:16:49.388Z,14.52
2023-04-17T11:19:21.505Z,14.52
2023-04-17T11:21:50.280Z,14.44
2023-04-17T11:24:37.285Z,14.34
2023-04-17T11:27:05.223Z,14.54
2023-04-17T11:29:31.795Z,14.53
2023-04-17T11:32:00.702Z,14.49
2023-04-17T11:34:27.596Z,14.49
2023-04-17T11:36:56.722Z,14.60
2023-04-17T11:39:25.031Z,14.63
2023-04-17T11:41:52.579Z,14.46
2023-04-17T11:44:22.752Z,14.70
2023-04-17T11:46:53.434Z,14.94
2023-04-17T11:49:30.596Z,14.98
2023-04-17T11:51:59.838Z,14.84
2023-04-17T11:54:27.938Z,14.42
2023-04-17T11:57:02.320Z,14.57
2023-04-17T11:59:34.293Z,14.82
2023-04-17T12:02:02.133Z,14.79
2023-04-17T12:04:31.093Z,14.76
2023-04-17T12:06:59.672Z,14.86
2023-04-17T12:09:31.573Z,14.68
2023-04-17T12:11:59.120Z,14.61
2023-04-17T12:14:26.498Z,14.61
2023-04-17T12:16:53.669Z,14.70
2023-04-17T12:19:20.310Z,14.66
2023-04-17T12:21:49.832Z,14.33
2023-04-17T12:24:19.690Z,14.51
2023-04-17T12:26:47.497Z,14.46
2023-04-17T12:29:15.211Z,14.32
2023-04-17T12:31:41.912Z,14.32
2023-04-17T12:34:08.614Z,14.27
2023-04-17T12:36:35.488Z,14.00
2023-04-17T12:39:02.626Z,13.89
2023-04-17T12:41:30.175Z,13.83
2023-04-17T12:44:00.114Z,13.70
2023-04-17T12:46:26.979Z,13.74
2023-04-17T12:48:58.543Z,13.89
2023-04-17T12:51:28.104Z,13.58
2023-04-17T12:53:55.597Z,13.58
2023-04-17T12:56:22.486Z,13.72
2023-04-17T12:58:49.054Z,13.67
2023-04-17T13:01:16.220Z,13.58
2023-04-17T13:03:43.202Z,13.66
2023-04-17T13:06:10.318Z,13.53
2023-04-17T13:08:36.941Z,13.61
2023-04-17T13:11:06.549Z,13.55
2023-04-17T13:13:33.157Z,13.47
2023-04-17T13:16:00.136Z,13.53
2023-04-17T13:18:26.740Z,13.55
2023-04-17T13:20:53.381Z,13.66
2023-04-17T13:23:20.600Z,13.52
2023-04-17T13:25:48.478Z,13.49
2023-04-17T13:28:15.161Z,13.52
2023-04-17T13:30:41.817Z,13.59
2023-04-17T13:33:08.377Z,13.69
2023-04-17T13:35:35.159Z,13.75
2023-04-17T13:38:03.024Z,13.82
2023-04-17T13:40:30.397Z,13.96
2023-04-17T13:42:57.076Z,13.87
2023-04-17T13:45:23.825Z,13.89
2023-04-17T13:47:50.485Z,13.94
2023-04-17T13:50:17.149Z,13.91
2023-04-17T13:52:43.673Z,13.83
2023-04-17T13:55:14.415Z,13.83
2023-04-17T13:57:41.035Z,13.83
2023-04-17T14:00:08.299Z,13.57
2023-04-17T14:02:35.226Z,13.72
2023-04-17T14:05:02.358Z,13.63
2023-04-17T14:07:30.006Z,13.66
2023-04-17T14:09:56.706Z,13.52
2023-04-17T14:12:23.716Z,13.60
2023-04-17T14:14:50.244Z,13.35
2023-04-17T14:17:16.870Z,13.61
2023-04-17T14:19:43.327Z,13.93
2023-04-17T14:22:10.447Z,14.05
2023-04-17T14:24:37.069Z,14.45
2023-04-17T14:27:03.955Z,14.59
2023-04-17T14:29:30.840Z,14.58
2023-04-17T14:31:58.072Z,14.54
2023-04-17T14:34:24.909Z,14.33
2023-04-17T14:36:51.449Z,14.22
2023-04-17T14:39:19.640Z,14.38
2023-04-17T14:41:46.328Z,14.27
2023-04-17T14:44:13.244Z,14.30
2023-04-17T14:46:40.492Z,14.30
2023-04-17T14:49:07.294Z,13.95
2023-04-17T14:51:33.840Z,13.71
2023-04-17T14:54:00.702Z,13.67
2023-04-17T14:56:27.373Z,13.62
2023-04-17T14:58:53.910Z,13.43
2023-04-17T15:01:20.805Z,13.33
2023-04-17T15:03:48.891Z,13.46
2023-04-17T15:06:16.368Z,13.43
2023-04-17T15:08:43.136Z,13.23
2023-04-17T15:11:10.100Z,13.25
2023-04-17T15:13:36.805Z,13.22
2023-04-17T15:16:03.700Z,13.36
2023-04-17T15:18:30.720Z,13.43
2023-04-17T15:20:57.398Z,13.52
2023-04-17T15:23:26.446Z,13.47
2023-04-17T15:25:57.693Z,13.46
2023-04-17T15:28:25.242Z,13.32
2023-04-17T15:30:51.804Z,13.39
2023-04-17T15:33:18.435Z,13.41
2023-04-17T15:35:45.181Z,13.20
2023-04-17T15:38:11.969Z,13.04
2023-04-17T15:40:38.732Z,13.07
2023-04-17T15:43:05.297Z,13.07
2023-04-17T15:45:31.987Z,13.07
2023-04-17T15:47:58.911Z,12.97
2023-04-17T15:50:25.472Z,12.87
2023-04-17T15:52:52.074Z,12.83
2023-04-17T15:55:18.831Z,12.86
2023-04-17T15:57:45.595Z,12.86
2023-04-17T16:00:12.836Z,12.81
2023-04-17T16:02:39.738Z,12.83
2023-04-17T16:05:06.845Z,12.68
2023-04-17T16:07:33.339Z,12.67
2023-04-17T16:10:00.573Z,12.59
2023-04-17T16:12:28.385Z,12.72
2023-04-17T16:14:54.934Z,12.59
2023-04-17T16:17:21.893Z,12.77
2023-04-17T16:19:50.467Z,12.78
2023-04-17T16:22:18.449Z,12.58
2023-04-17T16:24:44.942Z,12.46
2023-04-17T16:27:11.891Z,12.38
2023-04-17T16:29:38.400Z,12.39
2023-04-17T16:32:05.005Z,12.37
2023-04-17T16:34:31.849Z,12.30
2023-04-17T16:36:58.373Z,12.24
2023-04-17T16:39:25.000Z,12.17
2023-04-17T16:41:52.909Z,12.17
2023-04-17T16:44:19.641Z,12.12
2023-04-17T16:47:05.538Z,12.04
2023-04-17T16:49:32.811Z,12.05
2023-04-17T16:51:59.746Z,11.98
2023-04-17T16:54:26.267Z,11.91
2023-04-17T16:56:52.980Z,11.92
2023-04-17T16:59:19.701Z,11.79
2023-04-17T17:01:47.276Z,11.76
2023-04-17T17:04:13.926Z,11.59
2023-04-17T17:06:40.553Z,11.55
2023-04-17T17:09:07.174Z,11.54
2023-04-17T17:11:33.966Z,11.57
2023-04-17T17:14:01.017Z,11.46
2023-04-17T17:16:27.539Z,11.45
2023-04-17T17:18:54.394Z,11.44
2023-04-17T17:21:21.317Z,11.44
2023-04-17T17:23:49.191Z,11.47
2023-04-17T17:26:17.521Z,11.39
2023-04-17T17:28:51.046Z,11.39
2023-04-17T17:31:18.375Z,11.24
2023-04-17T17:33:50.016Z,11.29
2023-04-17T17:36:17.244Z,11.23
2023-04-17T17:38:44.259Z,11.17
2023-04-17T17:41:11.704Z,11.04
2023-04-17T17:43:38.296Z,11.05
2023-04-17T17:46:05.282Z,11.00
2023-04-17T17:48:31.987Z,10.96
2023-04-17T17:50:58.740Z,11.00
2023-04-17T17:53:26.979Z,10.93
2023-04-17T17:55:55.658Z,10.91
2023-04-17T17:58:22.869Z,10.78
2023-04-17T18:00:50.460Z,10.77
2023-04-17T18:03:17.471Z,10.72
2023-04-17T18:05:46.519Z,10.65
2023-04-17T18:08:13.682Z,10.66
2023-04-17T18:10:40.411Z,10.61
2023-04-17T18:13:07.131Z,10.58
2023-04-17T18:15:34.082Z,10.60
2023-04-17T18:18:00.794Z,10.61
2023-04-17T18:20:27.552Z,10.58
2023-04-17T18:22:54.240Z,10.52
2023-04-17T18:25:21.169Z,10.48
2023-04-17T18:27:47.907Z,10.48
2023-04-17T18:30:15.131Z,10.40
2023-04-17T18:32:41.650Z,10.46
2023-04-17T18:35:09.288Z,10.43
2023-04-17T18:37:36.507Z,10.38
2023-04-17T18:40:03.294Z,10.30
2023-04-17T18:42:30.023Z,10.34
2023-04-17T18:44:56.574Z,10.24
2023-04-17T18:47:23.137Z,10.27
2023-04-17T18:49:52.399Z,10.22
2023-04-17T18:52:19.393Z,10.18
2023-04-17T18:54:45.971Z,10.20
2023-04-17T18:57:12.426Z,10.18
2023-04-17T18:59:40.450Z,10.16
2023-04-17T19:02:07.971Z,10.11
2023-04-17T19:04:34.633Z,10.12
2023-04-17T19:07:02.705Z,10.06
2023-04-17T19:09:29.336Z,10.21
2023-04-17T19:11:57.520Z,10.11
2023-04-17T19:14:24.645Z,10.01
2023-04-17T19:16:51.286Z,9.91
2023-04-17T19:19:17.939Z,9.94
2023-04-17T19:21:44.471Z,9.95
2023-04-17T19:24:11.395Z,9.89
2023-04-17T19:26:38.141Z,9.89
2023-04-17T19:29:05.105Z,9.90
2023-04-17T19:31:32.953Z,9.88
2023-04-17T19:34:00.493Z,9.80
2023-04-17T19:36:28.120Z,9.82
2023-04-17T19:38:55.748Z,9.84
2023-04-17T19:41:22.396Z,9.89
2023-04-17T19:43:50.820Z,9.80
2023-04-17T19:46:18.173Z,9.81
2023-04-17T19:48:46.017Z,9.81
2023-04-17T19:51:13.427Z,9.76
2023-04-17T19:53:41.332Z,9.69
2023-04-17T19:56:10.573Z,9.77
2023-04-17T19:58:37.782Z,9.73
2023-04-17T20:01:04.612Z,9.71
2023-04-17T20:03:32.434Z,9.63
2023-04-17T20:05:59.842Z,9.62
2023-04-17T20:08:26.480Z,9.64
2023-04-17T20:10:53.025Z,9.64
2023-04-17T20:13:19.719Z,9.59
2023-04-17T20:15:46.438Z,9.58
2023-04-17T20:18:13.375Z,9.67
2023-04-17T20:20:40.152Z,9.52
2023-04-17T20:23:06.680Z,9.60
2023-04-17T20:25:33.169Z,9.51
2023-04-17T20:28:02.768Z,9.40
2023-04-17T20:30:29.841Z,9.35
2023-04-17T20:32:56.848Z,9.37
2023-04-17T20:35:26.455Z,9.32
2023-04-17T20:37:53.177Z,9.35
2023-04-17T20:40:20.021Z,9.38
2023-04-17T20:42:47.497Z,9.29
2023-04-17T20:45:14.374Z,9.39
2023-04-17T20:47:55.960Z,9.42
2023-04-17T20:50:24.227Z,9.33
2023-04-17T20:52:51.163Z,9.31
2023-04-17T20:55:20.865Z,9.27
2023-04-17T20:57:47.829Z,9.20
2023-04-17T21:00:14.603Z,9.22
2023-04-17T21:02:41.621Z,9.27
2023-04-17T21:05:10.486Z,9.27
2023-04-17T21:07:37.088Z,9.39
2023-04-17T21:10:03.966Z,9.44
2023-04-17T21:12:32.898Z,9.34
2023-04-17T21:14:59.751Z,9.20
2023-04-17T21:17:26.488Z,9.23
2023-04-17T21:19:55.724Z,9.17
2023-04-17T21:22:22.622Z,9.31
2023-04-17T21:24:49.290Z,9.18
2023-04-17T21:27:15.935Z,9.31
2023-04-17T21:29:42.742Z,9.31
2023-04-17T21:32:10.540Z,9.35
2023-04-17T21:34:37.183Z,9.34
2023-04-17T21:37:05.058Z,9.24
2023-04-17T21:39:33.296Z,9.21
2023-04-17T21:42:00.286Z,9.15
2023-04-17T21:44:26.794Z,9.07
2023-04-17T21:46:53.349Z,9.12
2023-04-17T21:49:20.645Z,9.06
2023-04-17T21:51:47.206Z,9.04
2023-04-17T21:54:14.134Z,9.04
2023-04-17T21:56:41.189Z,8.90
2023-04-17T21:59:07.876Z,8.91
2023-04-17T22:01:34.501Z,8.82
2023-04-17T22:04:01.725Z,8.83
2023-04-17T22:06:28.259Z,8.67
2023-04-17T22:08:54.764Z,8.57
2023-04-17T22:11:21.326Z,8.66
2023-04-17T22:13:47.796Z,8.51
2023-04-17T22:16:14.386Z,8.54
2023-04-17T22:18:40.907Z,8.41
2023-04-17T22:21:07.564Z,8.33
2023-04-17T22:23:34.041Z,8.23
2023-04-17T22:26:00.772Z,8.10
2023-04-17T22:28:31.251Z,8.17
2023-04-17T22:30:58.918Z,8.21
2023-04-17T22:33:26.126Z,8.32
2023-04-17T22:35:52.963Z,8.13
2023-04-17T22:38:20.912Z,8.17
2023-04-17T22:40:47.946Z,7.99
2023-04-17T22:43:14.642Z,7.94
2023-04-17T22:45:41.258Z,7.75
2023-04-17T22:48:07.790Z,7.73
2023-04-17T22:50:34.421Z,7.69
2023-04-17T22:53:00.871Z,7.64
2023-04-17T22:55:27.663Z,7.73
2023-04-17T22:57:54.352Z,7.67
2023-04-17T23:00:21.096Z,7.54
2023-04-17T23:02:47.686Z,7.47
2023-04-17T23:05:14.611Z,7.43
2023-04-17T23:07:41.261Z,7.45
2023-04-17T23:10:08.103Z,7.39
2023-04-17T23:12:34.709Z,7.41
2023-04-17T23:15:01.326Z,7.53
2023-04-17T23:17:27.854Z,7.50
2023-04-17T23:19:54.569Z,7.52
2023-04-17T23:22:21.046Z,7.41
2023-04-17T23:24:47.496Z,7.45
2023-04-17T23:27:13.983Z,7.44
2023-04-17T23:29:40.436Z,7.41
2023-04-17T23:32:07.435Z,7.39
2023-04-17T23:34:34.080Z,7.47
2023-04-17T23:37:02.586Z,7.50
2023-04-17T23:39:29.323Z,7.41
2023-04-17T23:41:55.850Z,7.34
2023-04-17T23:44:22.383Z,7.35
2023-04-17T23:46:48.887Z,7.35
2023-04-17T23:49:15.374Z,7.31
2023-04-17T23:51:41.837Z,7.33
2023-04-17T23:54:08.301Z,7.40
2023-04-17T23:56:34.831Z,7.39
2023-04-17T23:59:01.410Z,7.37
